createdAt,value
2023-05-19T00:00:59.127Z,7.23
2023-05-19T00:02:05.702Z,7.21
2023-05-19T00:03:09.245Z,7.20
2023-05-19T00:04:15.311Z,7.19
2023-05-19T00:05:18.623Z,7.19
2023-05-19T00:06:23.071Z,7.17
2023-05-19T00:07:29.927Z,7.15
2023-05-19T00:08:34.060Z,7.13
2023-05-19T00:09:37.226Z,7.13
2023-05-19T00:10:40.116Z,7.12
2023-05-19T00:11:43.183Z,7.10
2023-05-19T00:12:46.089Z,7.07
2023-05-19T00:13:49.728Z,7.06
2023-05-19T00:14:52.598Z,7.03
2023-05-19T00:15:55.619Z,7.00
2023-05-19T00:16:58.859Z,7.00
2023-05-19T00:18:02.076Z,7.00
2023-05-19T00:19:05.809Z,7.00
2023-05-19T00:20:08.877Z,7.00
2023-05-19T00:21:11.904Z,6.97
2023-05-19T00:22:14.766Z,6.93
2023-05-19T00:23:17.596Z,6.90
2023-05-19T00:24:20.312Z,6.89
2023-05-19T00:25:23.109Z,6.89
2023-05-19T00:26:27.275Z,6.90
2023-05-19T00:27:36.755Z,6.87
2023-05-19T00:28:39.520Z,6.85
2023-05-19T00:29:42.275Z,6.84
2023-05-19T00:30:45.015Z,6.83
2023-05-19T00:31:47.805Z,6.83
2023-05-19T00:32:51.183Z,6.84
2023-05-19T00:33:54.205Z,6.84
2023-05-19T00:34:56.986Z,6.83
2023-05-19T00:36:02.950Z,6.81
2023-05-19T00:37:05.801Z,6.79
2023-05-19T00:38:08.591Z,6.76
2023-05-19T00:39:11.338Z,6.73
2023-05-19T00:40:14.322Z,6.71
2023-05-19T00:41:17.539Z,6.69
2023-05-19T00:42:21.102Z,6.65
2023-05-19T00:43:23.850Z,6.63
2023-05-19T00:44:26.835Z,6.63
2023-05-19T00:45:29.565Z,6.62
2023-05-19T00:46:32.366Z,6.61
2023-05-19T00:47:35.222Z,6.61
2023-05-19T00:48:38.063Z,6.61
2023-05-19T00:49:41.044Z,6.63
2023-05-19T00:50:44.414Z,6.64
2023-05-19T00:51:47.423Z,6.66
2023-05-19T00:52:51.300Z,6.66
2023-05-19T00:53:54.269Z,6.66
2023-05-19T00:54:57.127Z,6.67
2023-05-19T00:55:59.990Z,6.67
2023-05-19T00:57:04.253Z,6.67
2023-05-19T00:58:07.926Z,6.68
2023-05-19T00:59:10.664Z,6.68
2023-05-19T01:00:14.070Z,6.68
2023-05-19T01:01:17.646Z,6.67
2023-05-19T01:02:21.628Z,6.65
2023-05-19T01:03:25.312Z,6.64
2023-05-19T01:04:29.775Z,6.63
2023-05-19T01:05:32.715Z,6.62
2023-05-19T01:06:37.987Z,6.61
2023-05-19T01:07:41.799Z,6.62
2023-05-19T01:08:44.827Z,6.60
2023-05-19T01:09:48.755Z,6.60
2023-05-19T01:10:51.648Z,6.59
2023-05-19T01:11:54.595Z,6.56
2023-05-19T01:12:57.366Z,6.55
2023-05-19T01:14:00.351Z,6.53
2023-05-19T01:15:04.071Z,6.52
2023-05-19T01:16:12.642Z,6.50
2023-05-19T01:17:27.694Z,6.49
2023-05-19T01:18:44.441Z,6.49
2023-05-19T01:20:06.699Z,6.49
2023-05-19T01:21:28.668Z,6.48
2023-05-19T01:22:32.102Z,6.49
2023-05-19T01:23:52.011Z,6.48
2023-05-19T01:25:13.309Z,6.48
2023-05-19T01:26:42.647Z,6.47
2023-05-19T01:27:54.470Z,6.47
2023-05-19T01:29:32.761Z,6.47
2023-05-19T01:32:05.051Z,6.46
2023-05-19T01:33:09.479Z,6.47
2023-05-19T01:34:13.301Z,6.46
2023-05-19T01:35:16.775Z,6.46
2023-05-19T01:36:20.445Z,6.44
2023-05-19T01:37:23.874Z,6.44
2023-05-19T01:38:28.450Z,6.45
2023-05-19T01:39:31.918Z,6.45
2023-05-19T01:40:35.054Z,6.45
2023-05-19T01:41:38.523Z,6.45
2023-05-19T01:42:42.103Z,6.43
2023-05-19T01:43:45.635Z,6.42
2023-05-19T01:44:48.708Z,6.43
2023-05-19T01:45:52.119Z,6.43
2023-05-19T01:46:55.074Z,6.42
2023-05-19T01:47:59.174Z,6.42
2023-05-19T01:49:02.182Z,6.40
2023-05-19T01:50:05.079Z,6.39
2023-05-19T01:51:07.766Z,6.37
2023-05-19T01:52:11.292Z,6.38
2023-05-19T01:53:14.832Z,6.37
2023-05-19T01:54:17.552Z,6.35
2023-05-19T01:55:22.849Z,6.35
2023-05-19T01:56:46.585Z,6.35
2023-05-19T01:58:07.985Z,6.35
2023-05-19T01:59:24.169Z,6.36
2023-05-19T02:00:46.076Z,6.37
2023-05-19T02:01:53.703Z,6.37
2023-05-19T02:03:11.893Z,6.36
2023-05-19T02:04:21.620Z,6.36
2023-05-19T02:05:33.600Z,6.35
2023-05-19T02:06:36.287Z,6.34
2023-05-19T02:07:45.147Z,6.34
2023-05-19T02:08:50.580Z,6.34
2023-05-19T02:10:02.751Z,6.33
2023-05-19T02:11:14.630Z,6.33
2023-05-19T02:12:23.381Z,6.33
2023-05-19T02:13:29.957Z,6.33
2023-05-19T02:14:39.723Z,6.33
2023-05-19T02:15:43.862Z,6.33
2023-05-19T02:16:47.957Z,6.32
2023-05-19T02:17:52.182Z,6.32
2023-05-19T02:18:55.417Z,6.32
2023-05-19T02:19:58.180Z,6.32
2023-05-19T02:21:01.701Z,6.31
2023-05-19T02:22:04.632Z,6.31
2023-05-19T02:23:07.332Z,6.31
2023-05-19T02:24:10.959Z,6.31
2023-05-19T02:25:14.292Z,6.33
2023-05-19T02:26:17.304Z,6.33
2023-05-19T02:27:20.017Z,6.33
2023-05-19T02:28:23.095Z,6.34
2023-05-19T02:29:26.037Z,6.34
2023-05-19T02:30:28.825Z,6.34
2023-05-19T02:31:31.560Z,6.35
2023-05-19T02:32:34.701Z,6.36
2023-05-19T02:33:37.714Z,6.36
2023-05-19T02:34:42.252Z,6.36
2023-05-19T02:35:45.001Z,6.37
2023-05-19T02:36:49.954Z,6.38
2023-05-19T02:37:52.828Z,6.38
2023-05-19T02:38:55.977Z,6.39
2023-05-19T02:39:58.674Z,6.42
2023-05-19T02:41:01.482Z,6.44
2023-05-19T02:42:04.311Z,6.46
2023-05-19T02:43:08.084Z,6.48
2023-05-19T02:44:10.866Z,6.49
2023-05-19T02:45:14.339Z,6.50
2023-05-19T02:46:17.198Z,6.52
2023-05-19T02:47:20.127Z,6.54
2023-05-19T02:48:22.882Z,6.56
2023-05-19T02:49:26.224Z,6.58
2023-05-19T02:50:30.486Z,6.61
2023-05-19T02:51:33.288Z,6.63
2023-05-19T02:52:36.214Z,6.66
2023-05-19T02:53:38.947Z,6.67
2023-05-19T02:54:41.682Z,6.69
2023-05-19T02:55:44.412Z,6.72
2023-05-19T02:56:47.287Z,6.74
2023-05-19T02:57:50.548Z,6.77
2023-05-19T02:58:53.344Z,6.78
2023-05-19T02:59:56.560Z,6.79
2023-05-19T03:00:59.305Z,6.80
2023-05-19T03:02:03.034Z,6.83
2023-05-19T03:03:05.891Z,6.84
2023-05-19T03:04:08.757Z,6.85
2023-05-19T03:05:11.677Z,6.87
2023-05-19T03:06:15.613Z,6.87
2023-05-19T03:07:18.451Z,6.87
2023-05-19T03:08:21.177Z,6.88
2023-05-19T03:09:23.976Z,6.90
2023-05-19T03:10:26.853Z,6.92
2023-05-19T03:11:30.998Z,6.93
2023-05-19T03:12:33.846Z,6.95
2023-05-19T03:13:36.700Z,6.96
2023-05-19T03:14:39.500Z,6.98
2023-05-19T03:15:42.625Z,7.00
2023-05-19T03:16:45.792Z,7.02
2023-05-19T03:17:48.833Z,7.05
2023-05-19T03:18:52.359Z,7.06
2023-05-19T03:19:55.109Z,7.08
2023-05-19T03:20:57.969Z,7.10
2023-05-19T03:22:00.777Z,7.12
2023-05-19T03:23:03.601Z,7.14
2023-05-19T03:24:06.752Z,7.17
2023-05-19T03:25:10.257Z,7.21
2023-05-19T03:26:13.688Z,7.22
2023-05-19T03:27:16.620Z,7.24
2023-05-19T03:28:20.033Z,7.25
2023-05-19T03:29:22.868Z,7.26
2023-05-19T03:30:27.083Z,7.28
2023-05-19T03:31:53.585Z,7.31
2023-05-19T03:32:56.467Z,7.34
2023-05-19T03:33:59.464Z,7.37
2023-05-19T03:35:02.205Z,7.40
2023-05-19T03:36:05.371Z,7.44
2023-05-19T03:37:10.955Z,7.47
2023-05-19T03:38:15.515Z,7.51
2023-05-19T03:39:25.169Z,7.54
2023-05-19T03:40:28.089Z,7.57
2023-05-19T03:41:36.686Z,7.59
2023-05-19T03:42:39.864Z,7.61
2023-05-19T03:43:42.745Z,7.61
2023-05-19T03:44:46.364Z,7.61
2023-05-19T03:45:49.460Z,7.62
2023-05-19T03:47:21.492Z,7.65
2023-05-19T03:48:36.938Z,7.68
2023-05-19T03:50:03.254Z,7.72
2023-05-19T03:51:38.318Z,7.75
2023-05-19T03:52:53.710Z,7.75
2023-05-19T03:54:04.631Z,7.76
2023-05-19T03:55:07.829Z,7.77
2023-05-19T03:56:13.656Z,7.79
2023-05-19T03:57:16.686Z,7.80
2023-05-19T03:58:19.492Z,7.82
2023-05-19T03:59:23.689Z,7.84
2023-05-19T04:00:26.623Z,7.86
2023-05-19T04:01:29.495Z,7.89
2023-05-19T04:02:33.977Z,7.93
2023-05-19T04:03:36.991Z,7.96
2023-05-19T04:04:39.928Z,7.99
2023-05-19T04:05:42.829Z,8.01
2023-05-19T04:06:45.716Z,8.04
2023-05-19T04:07:48.501Z,8.06
2023-05-19T04:08:51.255Z,8.07
2023-05-19T04:09:54.339Z,8.09
2023-05-19T04:10:57.080Z,8.11
2023-05-19T04:12:00.059Z,8.14
2023-05-19T04:13:02.883Z,8.16
2023-05-19T04:14:06.026Z,8.18
2023-05-19T04:15:11.524Z,8.20
2023-05-19T04:16:14.642Z,8.20
2023-05-19T04:17:17.566Z,8.22
2023-05-19T04:18:20.658Z,8.25
2023-05-19T04:19:23.576Z,8.28
2023-05-19T04:20:26.497Z,8.31
2023-05-19T04:21:29.194Z,8.34
2023-05-19T04:22:32.168Z,8.37
2023-05-19T04:23:34.929Z,8.41
2023-05-19T04:24:37.907Z,8.44
2023-05-19T04:25:41.939Z,8.48
2023-05-19T04:26:47.169Z,8.51
2023-05-19T04:27:53.025Z,8.54
2023-05-19T04:28:56.622Z,8.58
2023-05-19T04:29:59.571Z,8.61
2023-05-19T04:31:03.588Z,8.65
2023-05-19T04:32:06.801Z,8.68
2023-05-19T04:33:10.125Z,8.71
2023-05-19T04:34:13.239Z,8.74
2023-05-19T04:35:17.840Z,8.78
2023-05-19T04:36:21.843Z,8.82
2023-05-19T04:37:26.723Z,8.87
2023-05-19T04:38:30.108Z,8.92
2023-05-19T04:39:33.404Z,8.95
2023-05-19T04:40:37.164Z,8.99
2023-05-19T04:41:40.595Z,9.02
2023-05-19T04:42:46.184Z,9.06
2023-05-19T04:43:50.259Z,9.12
2023-05-19T04:44:54.147Z,9.16
2023-05-19T04:45:58.279Z,9.19
2023-05-19T04:47:01.729Z,9.23
2023-05-19T04:48:05.140Z,9.28
2023-05-19T04:49:08.111Z,9.33
2023-05-19T04:50:11.458Z,9.38
2023-05-19T04:51:17.742Z,9.41
2023-05-19T04:52:22.763Z,9.45
2023-05-19T04:53:26.560Z,9.48
2023-05-19T04:54:29.390Z,9.51
2023-05-19T04:55:33.082Z,9.54
2023-05-19T04:56:36.713Z,9.57
2023-05-19T04:57:40.547Z,9.61
2023-05-19T04:58:44.937Z,9.64
2023-05-19T04:59:48.000Z,9.69
2023-05-19T05:00:51.629Z,9.72
2023-05-19T05:01:55.676Z,9.75
2023-05-19T05:03:00.105Z,9.79
2023-05-19T05:04:04.913Z,9.80
2023-05-19T05:05:08.312Z,9.83
2023-05-19T05:06:11.840Z,9.86
2023-05-19T05:07:14.653Z,9.87
2023-05-19T05:08:23.155Z,9.88
2023-05-19T05:09:26.105Z,9.89
2023-05-19T05:10:29.386Z,9.89
2023-05-19T05:11:32.416Z,9.88
2023-05-19T05:12:36.959Z,9.88
2023-05-19T05:13:40.301Z,9.89
2023-05-19T05:14:43.214Z,9.90
2023-05-19T05:15:46.549Z,9.92
2023-05-19T05:16:50.016Z,9.94
2023-05-19T05:17:57.048Z,9.96
2023-05-19T05:19:01.257Z,9.97
2023-05-19T05:20:06.336Z,9.99
2023-05-19T05:21:09.272Z,10.05
2023-05-19T05:22:12.305Z,10.07
2023-05-19T05:23:16.749Z,10.12
2023-05-19T05:24:21.082Z,10.15
2023-05-19T05:25:28.921Z,10.16
2023-05-19T05:26:33.686Z,10.18
2023-05-19T05:27:36.884Z,10.21
2023-05-19T05:28:41.462Z,10.23
2023-05-19T05:29:44.374Z,10.25
2023-05-19T05:30:47.177Z,10.25
2023-05-19T05:31:50.528Z,10.26
2023-05-19T05:32:53.408Z,10.27
2023-05-19T05:34:15.002Z,10.29
2023-05-19T05:35:18.726Z,10.30
2023-05-19T05:36:21.587Z,10.32
2023-05-19T05:37:24.419Z,10.36
2023-05-19T05:38:27.904Z,10.39
2023-05-19T05:39:31.904Z,10.41
2023-05-19T05:40:35.734Z,10.44
2023-05-19T05:41:38.803Z,10.48
2023-05-19T05:42:46.463Z,10.53
2023-05-19T05:43:49.575Z,10.56
2023-05-19T05:44:52.400Z,10.57
2023-05-19T05:45:55.477Z,10.59
2023-05-19T05:46:58.384Z,10.62
2023-05-19T05:48:01.449Z,10.64
2023-05-19T05:49:04.667Z,10.66
2023-05-19T05:50:09.094Z,10.67
2023-05-19T05:51:12.320Z,10.67
2023-05-19T05:52:15.327Z,10.68
2023-05-19T05:53:22.120Z,10.68
2023-05-19T05:54:26.694Z,10.68
2023-05-19T05:55:29.864Z,10.70
2023-05-19T05:56:37.217Z,10.73
2023-05-19T05:57:44.156Z,10.76
2023-05-19T05:58:47.078Z,10.80
2023-05-19T05:59:50.864Z,10.84
2023-05-19T06:00:57.715Z,10.85
2023-05-19T06:02:01.712Z,10.88
2023-05-19T06:03:05.991Z,10.89
2023-05-19T06:04:08.892Z,10.93
2023-05-19T06:05:12.697Z,10.93
2023-05-19T06:06:16.419Z,10.93
2023-05-19T06:07:19.146Z,10.93
2023-05-19T06:08:22.080Z,10.94
2023-05-19T06:09:25.028Z,10.95
2023-05-19T06:10:28.533Z,10.97
2023-05-19T06:11:32.242Z,11.00
2023-05-19T06:12:35.402Z,11.03
2023-05-19T06:13:38.840Z,11.06
2023-05-19T06:14:43.015Z,11.08
2023-05-19T06:16:06.233Z,11.11
2023-05-19T06:17:15.252Z,11.14
2023-05-19T06:18:18.305Z,11.17
2023-05-19T06:19:25.438Z,11.19
2023-05-19T06:20:28.656Z,11.22
2023-05-19T06:21:32.379Z,11.26
2023-05-19T06:22:35.357Z,11.30
2023-05-19T06:23:38.585Z,11.35
2023-05-19T06:24:41.676Z,11.42
2023-05-19T06:25:45.206Z,11.50
2023-05-19T06:26:48.364Z,11.55
2023-05-19T06:27:52.459Z,11.60
2023-05-19T06:28:56.465Z,11.62
2023-05-19T06:29:59.985Z,11.65
2023-05-19T06:31:03.404Z,11.66
2023-05-19T06:32:22.565Z,11.67
2023-05-19T06:33:28.216Z,11.65
2023-05-19T06:34:32.796Z,11.60
2023-05-19T06:35:35.713Z,11.59
2023-05-19T06:36:38.728Z,11.59
2023-05-19T06:37:41.539Z,11.60
2023-05-19T06:38:44.377Z,11.59
2023-05-19T06:39:47.850Z,11.60
2023-05-19T06:40:50.791Z,11.59
2023-05-19T06:41:54.420Z,11.60
2023-05-19T06:43:16.692Z,11.60
2023-05-19T06:44:30.272Z,11.59
2023-05-19T06:45:33.276Z,11.58
2023-05-19T06:46:37.220Z,11.57
2023-05-19T06:47:44.612Z,11.57
2023-05-19T06:48:47.791Z,11.60
2023-05-19T06:49:55.183Z,11.66
2023-05-19T06:51:00.002Z,11.68
2023-05-19T06:52:03.157Z,11.71
2023-05-19T06:53:06.275Z,11.73
2023-05-19T06:54:11.195Z,11.74
2023-05-19T06:55:14.053Z,11.74
2023-05-19T06:56:18.599Z,11.75
2023-05-19T06:57:21.652Z,11.78
2023-05-19T06:58:24.534Z,11.81
2023-05-19T06:59:27.290Z,11.83
2023-05-19T07:00:30.088Z,11.84
2023-05-19T07:01:34.418Z,11.84
2023-05-19T07:02:37.590Z,11.84
2023-05-19T07:03:41.019Z,11.85
2023-05-19T07:04:44.743Z,11.87
2023-05-19T07:05:48.510Z,11.90
2023-05-19T07:06:51.424Z,11.95
2023-05-19T07:07:54.591Z,11.99
2023-05-19T07:09:00.095Z,11.97
2023-05-19T07:10:04.634Z,11.95
2023-05-19T07:11:07.867Z,11.92
2023-05-19T07:12:10.895Z,11.88
2023-05-19T07:13:13.763Z,11.81
2023-05-19T07:14:17.002Z,11.75
2023-05-19T07:15:20.119Z,11.71
2023-05-19T07:16:23.006Z,11.69
2023-05-19T07:17:26.281Z,11.70
2023-05-19T07:18:31.963Z,11.72
2023-05-19T07:19:35.210Z,11.72
2023-05-19T07:20:37.921Z,11.71
2023-05-19T07:21:42.557Z,11.71
2023-05-19T07:22:46.208Z,11.71
2023-05-19T07:23:49.096Z,11.68
2023-05-19T07:24:51.826Z,11.67
2023-05-19T07:25:56.320Z,11.67
2023-05-19T07:26:59.361Z,11.66
2023-05-19T07:28:02.480Z,11.66
2023-05-19T07:29:05.324Z,11.68
2023-05-19T07:30:08.486Z,11.71
2023-05-19T07:31:11.253Z,11.74
2023-05-19T07:32:14.274Z,11.78
2023-05-19T07:33:17.452Z,11.83
2023-05-19T07:34:22.107Z,11.89
2023-05-19T07:35:26.654Z,11.91
2023-05-19T07:36:29.429Z,11.89
2023-05-19T07:37:32.163Z,11.87
2023-05-19T07:38:35.233Z,11.86
2023-05-19T07:39:37.957Z,11.86
2023-05-19T07:40:40.843Z,11.86
2023-05-19T07:41:43.652Z,11.88
2023-05-19T07:42:46.427Z,11.89
2023-05-19T07:43:50.042Z,11.89
2023-05-19T07:44:52.857Z,11.90
2023-05-19T07:45:58.675Z,11.91
2023-05-19T07:47:01.607Z,11.94
2023-05-19T07:48:04.777Z,11.99
2023-05-19T07:49:07.579Z,12.01
2023-05-19T07:50:10.431Z,12.03
2023-05-19T07:51:13.360Z,12.05
2023-05-19T07:52:18.241Z,12.10
2023-05-19T07:53:22.696Z,12.13
2023-05-19T07:54:26.180Z,12.17
2023-05-19T07:55:28.919Z,12.20
2023-05-19T07:56:31.672Z,12.26
2023-05-19T07:57:34.426Z,12.32
2023-05-19T07:58:37.221Z,12.37
2023-05-19T07:59:40.219Z,12.40
2023-05-19T08:00:43.226Z,12.41
2023-05-19T08:01:45.950Z,12.45
2023-05-19T08:02:48.899Z,12.50
2023-05-19T08:03:51.929Z,12.57
2023-05-19T08:04:54.997Z,12.64
2023-05-19T08:05:58.057Z,12.67
2023-05-19T08:07:00.848Z,12.71
2023-05-19T08:08:03.898Z,12.71
2023-05-19T08:09:06.713Z,12.69
2023-05-19T08:10:09.681Z,12.68
2023-05-19T08:11:12.563Z,12.65
2023-05-19T08:12:15.504Z,12.61
2023-05-19T08:13:18.293Z,12.58
2023-05-19T08:14:22.921Z,12.59
2023-05-19T08:15:26.621Z,12.59
2023-05-19T08:16:29.703Z,12.56
2023-05-19T08:17:32.491Z,12.57
2023-05-19T08:18:35.328Z,12.57
2023-05-19T08:19:38.124Z,12.59
2023-05-19T08:20:41.142Z,12.61
2023-05-19T08:21:44.855Z,12.65
2023-05-19T08:22:47.636Z,12.70
2023-05-19T08:23:50.624Z,12.73
2023-05-19T08:24:53.424Z,12.78
2023-05-19T08:25:56.450Z,12.80
2023-05-19T08:26:59.468Z,12.81
2023-05-19T08:28:02.346Z,12.85
2023-05-19T08:29:05.133Z,12.92
2023-05-19T08:30:08.284Z,13.00
2023-05-19T08:31:11.289Z,13.02
2023-05-19T08:32:14.235Z,13.04
2023-05-19T08:33:17.498Z,13.07
2023-05-19T08:34:20.808Z,13.07
2023-05-19T08:35:23.780Z,13.02
2023-05-19T08:36:27.693Z,12.97
2023-05-19T08:37:31.985Z,12.99
2023-05-19T08:38:36.029Z,13.05
2023-05-19T08:39:38.765Z,13.07
2023-05-19T08:40:42.234Z,13.10
2023-05-19T08:41:45.024Z,13.16
2023-05-19T08:42:47.884Z,13.19
2023-05-19T08:43:50.777Z,13.17
2023-05-19T08:44:53.473Z,13.16
2023-05-19T08:45:56.551Z,13.14
2023-05-19T08:47:02.850Z,13.10
2023-05-19T08:48:06.434Z,13.06
2023-05-19T08:49:12.168Z,13.03
2023-05-19T08:50:17.311Z,12.99
2023-05-19T08:51:23.200Z,12.97
2023-05-19T08:52:33.073Z,12.98
2023-05-19T08:53:40.683Z,13.00
2023-05-19T08:54:46.970Z,12.99
2023-05-19T08:56:01.468Z,12.97
2023-05-19T08:57:05.612Z,12.96
2023-05-19T08:58:08.765Z,12.99
2023-05-19T08:59:13.302Z,13.00
2023-05-19T09:00:17.015Z,13.02
2023-05-19T09:01:20.465Z,13.07
2023-05-19T09:02:23.825Z,13.09
2023-05-19T09:03:29.134Z,13.06
2023-05-19T09:04:32.342Z,13.04
2023-05-19T09:05:35.704Z,13.03
2023-05-19T09:06:41.109Z,13.07
2023-05-19T09:07:44.988Z,13.13
2023-05-19T09:08:48.320Z,13.21
2023-05-19T09:09:51.080Z,13.26
2023-05-19T09:10:53.852Z,13.27
2023-05-19T09:11:56.749Z,13.30
2023-05-19T09:12:59.776Z,13.35
2023-05-19T09:14:02.558Z,13.36
2023-05-19T09:15:06.021Z,13.37
2023-05-19T09:16:08.909Z,13.38
2023-05-19T09:17:12.234Z,13.39
2023-05-19T09:18:15.334Z,13.41
2023-05-19T09:19:18.189Z,13.47
2023-05-19T09:20:21.080Z,13.51
2023-05-19T09:21:33.270Z,13.53
2023-05-19T09:22:40.906Z,13.52
2023-05-19T09:23:47.143Z,13.51
2023-05-19T09:24:50.014Z,13.49
2023-05-19T09:25:53.426Z,13.46
2023-05-19T09:27:00.443Z,13.44
2023-05-19T09:28:03.626Z,13.47
2023-05-19T09:29:16.498Z,13.52
2023-05-19T09:30:19.777Z,13.56
2023-05-19T09:31:22.609Z,13.54
2023-05-19T09:32:26.792Z,13.49
2023-05-19T09:33:31.059Z,13.49
2023-05-19T09:34:33.794Z,13.49
2023-05-19T09:35:37.115Z,13.47
2023-05-19T09:36:42.657Z,13.46
2023-05-19T09:37:46.326Z,13.44
2023-05-19T09:38:49.352Z,13.43
2023-05-19T09:39:53.528Z,13.44
2023-05-19T09:40:58.018Z,13.47
2023-05-19T09:42:04.535Z,13.53
2023-05-19T09:43:08.091Z,13.57
2023-05-19T09:44:32.779Z,13.59
2023-05-19T09:45:36.136Z,13.59
2023-05-19T09:46:38.997Z,13.60
2023-05-19T09:47:42.234Z,13.62
2023-05-19T09:48:45.474Z,13.62
2023-05-19T09:49:48.291Z,13.62
2023-05-19T09:50:53.288Z,13.59
2023-05-19T09:51:59.418Z,13.56
2023-05-19T09:53:02.194Z,13.57
2023-05-19T09:54:05.065Z,13.59
2023-05-19T09:55:12.704Z,13.62
2023-05-19T09:56:16.132Z,13.63
2023-05-19T09:57:25.090Z,13.59
2023-05-19T09:58:31.317Z,13.59
2023-05-19T09:59:34.816Z,13.61
2023-05-19T10:00:37.987Z,13.62
2023-05-19T10:01:41.685Z,13.61
2023-05-19T10:02:45.726Z,13.57
2023-05-19T10:03:49.181Z,13.50
2023-05-19T10:04:52.472Z,13.44
2023-05-19T10:05:55.845Z,13.41
2023-05-19T10:06:59.845Z,13.43
2023-05-19T10:08:03.338Z,13.43
2023-05-19T10:09:06.228Z,13.47
2023-05-19T10:10:09.653Z,13.53
2023-05-19T10:11:12.482Z,13.53
2023-05-19T10:12:15.415Z,13.54
2023-05-19T10:13:18.566Z,13.55
2023-05-19T10:14:25.407Z,13.53
2023-05-19T10:15:28.274Z,13.49
2023-05-19T10:16:31.773Z,13.45
2023-05-19T10:17:36.019Z,13.42
2023-05-19T10:18:40.252Z,13.45
2023-05-19T10:19:43.968Z,13.50
2023-05-19T10:20:47.706Z,13.56
2023-05-19T10:21:51.077Z,13.57
2023-05-19T10:22:53.913Z,13.52
2023-05-19T10:23:56.698Z,13.50
2023-05-19T10:24:59.461Z,13.48
2023-05-19T10:26:05.099Z,13.44
2023-05-19T10:27:10.288Z,13.42
2023-05-19T10:28:14.808Z,13.42
2023-05-19T10:29:21.797Z,13.44
2023-05-19T10:30:33.432Z,13.44
2023-05-19T10:31:36.873Z,13.46
2023-05-19T10:32:40.867Z,13.49
2023-05-19T10:33:59.624Z,13.51
2023-05-19T10:35:21.406Z,13.47
2023-05-19T10:36:35.505Z,13.42
2023-05-19T10:37:45.023Z,13.36
2023-05-19T10:38:52.598Z,13.35
2023-05-19T10:39:55.999Z,13.33
2023-05-19T10:41:11.791Z,13.32
2023-05-19T10:42:30.052Z,13.32
2023-05-19T10:43:35.891Z,13.31
2023-05-19T10:44:57.386Z,13.27
2023-05-19T10:46:00.325Z,13.21
2023-05-19T10:47:06.372Z,13.18
2023-05-19T10:48:14.352Z,13.16
2023-05-19T10:49:20.739Z,13.13
2023-05-19T10:50:24.034Z,13.05
2023-05-19T10:51:33.564Z,12.98
2023-05-19T10:52:39.988Z,12.93
2023-05-19T10:53:46.465Z,12.89
2023-05-19T10:54:49.626Z,12.85
2023-05-19T10:56:03.970Z,12.84
2023-05-19T10:57:08.325Z,12.85
2023-05-19T10:58:11.512Z,12.81
2023-05-19T10:59:40.483Z,12.76
2023-05-19T11:00:43.612Z,12.70
2023-05-19T11:01:47.187Z,12.68
2023-05-19T11:02:56.375Z,12.69
2023-05-19T11:04:05.011Z,12.70
2023-05-19T11:05:09.638Z,12.68
2023-05-19T11:06:26.506Z,12.66
2023-05-19T11:07:29.980Z,12.61
2023-05-19T11:08:33.852Z,12.59
2023-05-19T11:09:42.970Z,12.55
2023-05-19T11:10:46.471Z,12.55
2023-05-19T11:11:50.462Z,12.55
2023-05-19T11:12:58.186Z,12.56
2023-05-19T11:14:01.357Z,12.54
2023-05-19T11:15:04.342Z,12.54
2023-05-19T11:16:08.425Z,12.55
2023-05-19T11:17:15.752Z,12.56
2023-05-19T11:18:19.425Z,12.58
2023-05-19T11:19:32.090Z,12.59
2023-05-19T11:20:38.894Z,12.58
2023-05-19T11:21:50.396Z,12.57
2023-05-19T11:23:10.171Z,12.57
2023-05-19T11:24:31.848Z,12.61
2023-05-19T11:25:49.812Z,12.64
2023-05-19T11:26:54.789Z,12.68
2023-05-19T11:27:57.987Z,12.71
2023-05-19T11:29:00.979Z,12.73
2023-05-19T11:30:07.693Z,12.76
2023-05-19T11:31:10.865Z,12.76
2023-05-19T11:32:14.091Z,12.78
2023-05-19T11:33:20.017Z,12.80
2023-05-19T11:34:25.983Z,12.80
2023-05-19T11:35:29.580Z,12.80
2023-05-19T11:36:33.222Z,12.81
2023-05-19T11:37:36.786Z,12.80
2023-05-19T11:38:39.614Z,12.77
2023-05-19T11:39:42.345Z,12.74
2023-05-19T11:40:45.433Z,12.73
2023-05-19T11:41:48.141Z,12.71
2023-05-19T11:42:51.212Z,12.71
2023-05-19T11:43:53.974Z,12.73
2023-05-19T11:44:56.774Z,12.75
2023-05-19T11:46:00.953Z,12.80
2023-05-19T11:47:04.480Z,12.83
2023-05-19T11:48:10.994Z,12.88
2023-05-19T11:49:15.096Z,12.92
2023-05-19T11:50:18.105Z,12.97
2023-05-19T11:51:21.681Z,13.03
2023-05-19T11:52:24.837Z,13.09
2023-05-19T11:53:33.257Z,13.16
2023-05-19T11:54:39.314Z,13.20
2023-05-19T11:55:43.600Z,13.20
2023-05-19T11:56:47.507Z,13.21
2023-05-19T11:59:05.097Z,13.24
2023-05-19T12:00:09.485Z,13.27
2023-05-19T12:01:12.300Z,13.32
2023-05-19T12:02:25.150Z,13.36
2023-05-19T12:03:29.782Z,13.40
2023-05-19T12:04:32.833Z,13.47
2023-05-19T12:05:43.660Z,13.54
2023-05-19T12:06:49.082Z,13.59
2023-05-19T12:07:52.458Z,13.65
2023-05-19T12:08:56.413Z,13.73
2023-05-19T12:09:59.880Z,13.73
2023-05-19T12:11:02.652Z,13.77
2023-05-19T12:12:05.557Z,13.80
2023-05-19T12:13:09.989Z,13.84
2023-05-19T12:14:13.203Z,13.87
2023-05-19T12:15:18.767Z,13.90
2023-05-19T12:16:21.596Z,13.95
2023-05-19T12:17:24.499Z,13.97
2023-05-19T12:18:34.092Z,13.98
2023-05-19T12:19:36.984Z,14.02
2023-05-19T12:20:39.777Z,14.07
2023-05-19T12:21:42.608Z,14.12
2023-05-19T12:22:46.075Z,14.12
2023-05-19T12:23:49.387Z,14.15
2023-05-19T12:24:52.844Z,14.17
2023-05-19T12:25:55.798Z,14.20
2023-05-19T12:27:05.729Z,14.28
2023-05-19T12:28:08.474Z,14.37
2023-05-19T12:29:13.101Z,14.43
2023-05-19T12:30:16.728Z,14.47
2023-05-19T12:31:20.559Z,14.44
2023-05-19T12:32:26.907Z,14.41
2023-05-19T12:33:33.483Z,14.38
2023-05-19T12:34:38.335Z,14.34
2023-05-19T12:35:42.258Z,14.30
2023-05-19T12:36:44.987Z,14.28
2023-05-19T12:37:49.214Z,14.24
2023-05-19T12:38:55.218Z,14.23
2023-05-19T12:39:58.417Z,14.21
2023-05-19T12:41:01.207Z,14.18
2023-05-19T12:42:04.441Z,14.13
2023-05-19T12:43:07.961Z,14.05
2023-05-19T12:44:17.556Z,13.97
2023-05-19T12:45:21.435Z,13.92
2023-05-19T12:46:24.203Z,13.90
2023-05-19T12:47:32.567Z,13.90
2023-05-19T12:48:35.420Z,13.91
2023-05-19T12:49:53.274Z,13.89
2023-05-19T12:50:56.887Z,13.86
2023-05-19T12:52:03.046Z,13.85
2023-05-19T12:53:14.265Z,13.84
2023-05-19T12:54:19.470Z,13.83
2023-05-19T12:55:23.234Z,13.82
2023-05-19T12:56:27.160Z,13.78
2023-05-19T12:57:32.481Z,13.76
2023-05-19T12:58:35.292Z,13.75
2023-05-19T12:59:39.048Z,13.77
2023-05-19T13:00:43.653Z,13.70
2023-05-19T13:01:54.955Z,13.64
2023-05-19T13:03:05.736Z,13.63
2023-05-19T13:04:08.968Z,13.65
2023-05-19T13:05:12.061Z,13.69
2023-05-19T13:06:14.793Z,13.71
2023-05-19T13:07:17.495Z,13.69
2023-05-19T13:08:21.671Z,13.68
2023-05-19T13:09:24.614Z,13.65
2023-05-19T13:10:28.178Z,13.61
2023-05-19T13:11:30.856Z,13.56
2023-05-19T13:12:33.676Z,13.52
2023-05-19T13:13:37.070Z,13.47
2023-05-19T13:14:41.960Z,13.39
2023-05-19T13:15:45.479Z,13.35
2023-05-19T13:16:48.288Z,13.32
2023-05-19T13:17:51.687Z,13.29
2023-05-19T13:18:54.937Z,13.27
2023-05-19T13:19:57.897Z,13.24
2023-05-19T13:21:00.641Z,13.22
2023-05-19T13:22:03.695Z,13.21
2023-05-19T13:23:06.757Z,13.22
2023-05-19T13:24:09.680Z,13.24
2023-05-19T13:25:12.479Z,13.25
2023-05-19T13:26:15.500Z,13.26
2023-05-19T13:27:18.379Z,13.27
2023-05-19T13:28:21.169Z,13.27
2023-05-19T13:29:23.975Z,13.29
2023-05-19T13:30:27.178Z,13.30
2023-05-19T13:31:30.032Z,13.29
2023-05-19T13:32:32.914Z,13.26
2023-05-19T13:33:35.653Z,13.19
2023-05-19T13:34:38.511Z,13.12
2023-05-19T13:35:41.395Z,13.09
2023-05-19T13:36:48.228Z,13.08
2023-05-19T13:37:51.043Z,13.07
2023-05-19T13:38:54.272Z,13.07
2023-05-19T13:40:00.158Z,13.05
2023-05-19T13:41:02.970Z,13.05
2023-05-19T13:42:06.398Z,13.04
2023-05-19T13:43:09.826Z,13.05
2023-05-19T13:44:13.021Z,13.05
2023-05-19T13:45:16.277Z,13.06
2023-05-19T13:46:24.248Z,13.04
2023-05-19T13:47:32.888Z,13.00
2023-05-19T13:48:36.214Z,12.96
2023-05-19T13:49:39.166Z,12.93
2023-05-19T13:50:42.602Z,12.93
2023-05-19T13:51:45.444Z,12.94
2023-05-19T13:52:48.243Z,12.94
2023-05-19T13:53:51.251Z,12.96
2023-05-19T13:54:56.919Z,12.94
2023-05-19T13:56:00.528Z,12.93
2023-05-19T13:57:03.212Z,12.93
2023-05-19T13:58:05.962Z,12.92
2023-05-19T13:59:08.653Z,12.88
2023-05-19T14:00:11.668Z,12.85
2023-05-19T14:01:17.470Z,12.82
2023-05-19T14:02:20.379Z,12.83
2023-05-19T14:03:24.862Z,12.80
2023-05-19T14:04:28.195Z,12.77
2023-05-19T14:05:31.426Z,12.75
2023-05-19T14:06:34.328Z,12.76
2023-05-19T14:07:37.176Z,12.74
2023-05-19T14:08:39.920Z,12.74